sensor_id;sensor_type;location;lat;lon;timestamp;temperature;humidity
64961;SHT31;51487;52.266;10.542;2024-03-25T00:00:16;5.82;92.81
64961;SHT31;51487;52.266;10.542;2024-03-25T00:02:43;5.78;92.76
64961;SHT31;51487;52.266;10.542;2024-03-25T00:05:09;5.88;92.82
64961;SHT31;51487;52.266;10.542;2024-03-25T00:07:39;5.84;92.62
64961;SHT31;51487;52.266;10.542;2024-03-25T00:10:05;5.82;92.49
64961;SHT31;51487;52.266;10.542;2024-03-25T00:12:37;5.85;92.67
64961;SHT31;51487;52.266;10.542;2024-03-25T00:15:03;5.74;92.74
64961;SHT31;51487;52.266;10.542;2024-03-25T00:17:28;5.71;92.63
64961;SHT31;51487;52.266;10.542;2024-03-25T00:19:54;5.61;92.69
64961;SHT31;51487;52.266;10.542;2024-03-25T00:22:21;5.60;92.11
64961;SHT31;51487;52.266;10.542;2024-03-25T00:24:48;5.50;92.45
64961;SHT31;51487;52.266;10.542;2024-03-25T00:27:17;5.58;91.98
64961;SHT31;51487;52.266;10.542;2024-03-25T00:29:43;5.60;92.00
64961;SHT31;51487;52.266;10.542;2024-03-25T00:32:10;5.61;91.63
64961;SHT31;51487;52.266;10.542;2024-03-25T00:34:36;5.55;91.78
64961;SHT31;51487;52.266;10.542;2024-03-25T00:37:02;5.61;92.23
64961;SHT31;51487;52.266;10.542;2024-03-25T00:39:29;5.71;92.05
64961;SHT31;51487;52.266;10.542;2024-03-25T00:41:58;5.71;92.51
64961;SHT31;51487;52.266;10.542;2024-03-25T00:44:24;5.78;92.70
64961;SHT31;51487;52.266;10.542;2024-03-25T00:46:50;5.72;92.32
64961;SHT31;51487;52.266;10.542;2024-03-25T00:49:16;5.81;92.39
64961;SHT31;51487;52.266;10.542;2024-03-25T00:51:41;5.77;92.13
64961;SHT31;51487;52.266;10.542;2024-03-25T00:54:07;5.71;92.04
64961;SHT31;51487;52.266;10.542;2024-03-25T00:56:32;5.68;92.20
64961;SHT31;51487;52.266;10.542;2024-03-25T00:58:58;5.61;92.52
64961;SHT31;51487;52.266;10.542;2024-03-25T01:01:34;5.61;92.73
64961;SHT31;51487;52.266;10.542;2024-03-25T01:04:02;5.65;92.69
64961;SHT31;51487;52.266;10.542;2024-03-25T01:06:27;5.58;92.84
64961;SHT31;51487;52.266;10.542;2024-03-25T01:08:53;5.71;92.97
64961;SHT31;51487;52.266;10.542;2024-03-25T01:11:18;5.77;92.63
64961;SHT31;51487;52.266;10.542;2024-03-25T01:13:44;5.70;93.08
64961;SHT31;51487;52.266;10.542;2024-03-25T01:16:10;5.75;92.88
64961;SHT31;51487;52.266;10.542;2024-03-25T01:18:36;5.78;93.06
64961;SHT31;51487;52.266;10.542;2024-03-25T01:21:02;5.64;93.29
64961;SHT31;51487;52.266;10.542;2024-03-25T01:23:27;5.71;93.12
64961;SHT31;51487;52.266;10.542;2024-03-25T01:25:53;5.70;93.53
64961;SHT31;51487;52.266;10.542;2024-03-25T01:28:18;5.65;93.66
64961;SHT31;51487;52.266;10.542;2024-03-25T01:30:44;5.78;93.00
64961;SHT31;51487;52.266;10.542;2024-03-25T01:33:09;5.72;93.28
64961;SHT31;51487;52.266;10.542;2024-03-25T01:35:35;5.71;93.09
64961;SHT31;51487;52.266;10.542;2024-03-25T01:38:00;5.77;92.41
64961;SHT31;51487;52.266;10.542;2024-03-25T01:40:26;5.71;92.53
64961;SHT31;51487;52.266;10.542;2024-03-25T01:43:03;5.77;92.62
64961;SHT31;51487;52.266;10.542;2024-03-25T01:45:31;5.71;92.74
64961;SHT31;51487;52.266;10.542;2024-03-25T01:47:59;5.78;92.50
64961;SHT31;51487;52.266;10.542;2024-03-25T01:50:26;5.74;92.46
64961;SHT31;51487;52.266;10.542;2024-03-25T01:52:53;5.64;93.17
64961;SHT31;51487;52.266;10.542;2024-03-25T01:55:22;5.75;92.75
64961;SHT31;51487;52.266;10.542;2024-03-25T01:57:49;5.77;92.79
64961;SHT31;51487;52.266;10.542;2024-03-25T02:00:16;5.85;92.39
64961;SHT31;51487;52.266;10.542;2024-03-25T02:02:44;5.91;91.97
64961;SHT31;51487;52.266;10.542;2024-03-25T02:05:11;5.77;92.40
64961;SHT31;51487;52.266;10.542;2024-03-25T02:07:37;5.82;92.30
64961;SHT31;51487;52.266;10.542;2024-03-25T02:10:04;5.75;92.46
64961;SHT31;51487;52.266;10.542;2024-03-25T02:12:31;5.87;92.44
64961;SHT31;51487;52.266;10.542;2024-03-25T02:14:58;5.91;92.18
64961;SHT31;51487;52.266;10.542;2024-03-25T02:17:24;5.94;92.23
64961;SHT31;51487;52.266;10.542;2024-03-25T02:19:51;5.87;92.91
64961;SHT31;51487;52.266;10.542;2024-03-25T02:22:17;5.87;92.57
64961;SHT31;51487;52.266;10.542;2024-03-25T02:24:45;5.79;93.00
64961;SHT31;51487;52.266;10.542;2024-03-25T02:27:12;5.71;93.27
64961;SHT31;51487;52.266;10.542;2024-03-25T02:29:43;5.75;93.15
64961;SHT31;51487;52.266;10.542;2024-03-25T02:32:10;5.70;93.23
64961;SHT31;51487;52.266;10.542;2024-03-25T02:34:51;5.71;93.32
64961;SHT31;51487;52.266;10.542;2024-03-25T02:37:19;5.77;93.54
64961;SHT31;51487;52.266;10.542;2024-03-25T02:39:45;5.79;93.35
64961;SHT31;51487;52.266;10.542;2024-03-25T02:42:11;5.78;93.69
64961;SHT31;51487;52.266;10.542;2024-03-25T02:44:37;5.85;93.83
64961;SHT31;51487;52.266;10.542;2024-03-25T02:47:03;5.74;93.17
64961;SHT31;51487;52.266;10.542;2024-03-25T02:49:29;5.67;93.18
64961;SHT31;51487;52.266;10.542;2024-03-25T02:51:54;5.57;93.69
64961;SHT31;51487;52.266;10.542;2024-03-25T02:54:20;5.74;93.47
64961;SHT31;51487;52.266;10.542;2024-03-25T02:56:46;5.77;93.27
64961;SHT31;51487;52.266;10.542;2024-03-25T02:59:12;5.67;92.76
64961;SHT31;51487;52.266;10.542;2024-03-25T03:01:37;5.71;93.57
64961;SHT31;51487;52.266;10.542;2024-03-25T03:04:03;5.81;93.60
64961;SHT31;51487;52.266;10.542;2024-03-25T03:06:28;5.72;93.99
64961;SHT31;51487;52.266;10.542;2024-03-25T03:08:54;5.84;93.93
64961;SHT31;51487;52.266;10.542;2024-03-25T03:11:19;5.77;94.15
64961;SHT31;51487;52.266;10.542;2024-03-25T03:13:45;5.72;94.44
64961;SHT31;51487;52.266;10.542;2024-03-25T03:16:11;5.81;94.12
64961;SHT31;51487;52.266;10.542;2024-03-25T03:18:37;5.77;94.19
64961;SHT31;51487;52.266;10.542;2024-03-25T03:21:03;5.71;94.37
64961;SHT31;51487;52.266;10.542;2024-03-25T03:23:28;5.77;93.95
64961;SHT31;51487;52.266;10.542;2024-03-25T03:25:54;5.81;93.94
64961;SHT31;51487;52.266;10.542;2024-03-25T03:28:19;5.82;93.80
64961;SHT31;51487;52.266;10.542;2024-03-25T03:30:45;5.75;93.80
64961;SHT31;51487;52.266;10.542;2024-03-25T03:33:10;5.74;93.61
64961;SHT31;51487;52.266;10.542;2024-03-25T03:35:36;5.70;93.77
64961;SHT31;51487;52.266;10.542;2024-03-25T03:38:02;5.79;93.84
64961;SHT31;51487;52.266;10.542;2024-03-25T03:40:29;5.78;93.78
64961;SHT31;51487;52.266;10.542;2024-03-25T03:42:55;5.79;93.90
64961;SHT31;51487;52.266;10.542;2024-03-25T03:45:24;5.77;93.42
64961;SHT31;51487;52.266;10.542;2024-03-25T03:47:50;5.85;93.12
64961;SHT31;51487;52.266;10.542;2024-03-25T03:50:16;5.79;93.40
64961;SHT31;51487;52.266;10.542;2024-03-25T03:52:41;5.75;93.46
64961;SHT31;51487;52.266;10.542;2024-03-25T03:55:07;5.74;93.97
64961;SHT31;51487;52.266;10.542;2024-03-25T03:57:32;5.84;93.56
64961;SHT31;51487;52.266;10.542;2024-03-25T03:59:58;5.88;93.59
64961;SHT31;51487;52.266;10.542;2024-03-25T04:02:25;5.88;93.27
64961;SHT31;51487;52.266;10.542;2024-03-25T04:04:51;5.82;93.00
64961;SHT31;51487;52.266;10.542;2024-03-25T04:07:16;5.91;93.12
64961;SHT31;51487;52.266;10.542;2024-03-25T04:09:43;5.94;93.14
64961;SHT31;51487;52.266;10.542;2024-03-25T04:12:08;5.87;93.06
64961;SHT31;51487;52.266;10.542;2024-03-25T04:14:34;5.77;92.57
64961;SHT31;51487;52.266;10.542;2024-03-25T04:16:59;5.78;93.08
64961;SHT31;51487;52.266;10.542;2024-03-25T04:19:25;5.77;92.99
64961;SHT31;51487;52.266;10.542;2024-03-25T04:21:53;5.81;93.59
64961;SHT31;51487;52.266;10.542;2024-03-25T04:24:19;5.89;92.89
64961;SHT31;51487;52.266;10.542;2024-03-25T04:26:45;5.95;92.57
64961;SHT31;51487;52.266;10.542;2024-03-25T04:29:11;5.77;92.61
64961;SHT31;51487;52.266;10.542;2024-03-25T04:31:36;5.67;93.20
64961;SHT31;51487;52.266;10.542;2024-03-25T04:34:03;5.75;93.58
64961;SHT31;51487;52.266;10.542;2024-03-25T04:36:30;5.87;93.11
64961;SHT31;51487;52.266;10.542;2024-03-25T04:38:56;5.87;92.93
64961;SHT31;51487;52.266;10.542;2024-03-25T04:41:21;5.82;92.98
64961;SHT31;51487;52.266;10.542;2024-03-25T04:43:47;5.77;93.16
64961;SHT31;51487;52.266;10.542;2024-03-25T04:46:12;5.64;93.40
64961;SHT31;51487;52.266;10.542;2024-03-25T04:48:37;5.77;93.24
64961;SHT31;51487;52.266;10.542;2024-03-25T04:51:03;5.85;93.24
64961;SHT31;51487;52.266;10.542;2024-03-25T04:53:30;5.70;93.15
64961;SHT31;51487;52.266;10.542;2024-03-25T04:55:56;5.72;93.30
64961;SHT31;51487;52.266;10.542;2024-03-25T04:58:21;5.60;93.24
64961;SHT31;51487;52.266;10.542;2024-03-25T05:00:46;5.55;93.72
64961;SHT31;51487;52.266;10.542;2024-03-25T05:03:12;5.50;94.05
64961;SHT31;51487;52.266;10.542;2024-03-25T05:05:37;5.39;94.14
64961;SHT31;51487;52.266;10.542;2024-03-25T05:08:03;5.41;94.31
64961;SHT31;51487;52.266;10.542;2024-03-25T05:10:29;5.33;94.53
64961;SHT31;51487;52.266;10.542;2024-03-25T05:12:54;5.37;94.66
64961;SHT31;51487;52.266;10.542;2024-03-25T05:15:21;5.34;94.23
64961;SHT31;51487;52.266;10.542;2024-03-25T05:17:46;5.40;94.11
64961;SHT31;51487;52.266;10.542;2024-03-25T05:20:12;5.34;94.11
64961;SHT31;51487;52.266;10.542;2024-03-25T05:22:38;5.40;94.30
64961;SHT31;51487;52.266;10.542;2024-03-25T05:25:03;5.54;93.94
64961;SHT31;51487;52.266;10.542;2024-03-25T05:27:29;5.54;94.23
64961;SHT31;51487;52.266;10.542;2024-03-25T05:29:55;5.48;94.07
64961;SHT31;51487;52.266;10.542;2024-03-25T05:32:20;5.57;94.10
64961;SHT31;51487;52.266;10.542;2024-03-25T05:34:47;5.60;93.83
64961;SHT31;51487;52.266;10.542;2024-03-25T05:37:14;5.70;93.51
64961;SHT31;51487;52.266;10.542;2024-03-25T05:39:39;5.70;93.62
64961;SHT31;51487;52.266;10.542;2024-03-25T05:42:05;5.75;93.31
64961;SHT31;51487;52.266;10.542;2024-03-25T05:44:30;5.77;93.68
64961;SHT31;51487;52.266;10.542;2024-03-25T05:46:56;5.75;93.38
64961;SHT31;51487;52.266;10.542;2024-03-25T05:49:22;5.78;93.50
64961;SHT31;51487;52.266;10.542;2024-03-25T05:51:47;5.94;92.99
64961;SHT31;51487;52.266;10.542;2024-03-25T05:54:13;5.97;92.82
64961;SHT31;51487;52.266;10.542;2024-03-25T05:56:38;5.89;92.96
64961;SHT31;51487;52.266;10.542;2024-03-25T05:59:04;5.89;92.58
64961;SHT31;51487;52.266;10.542;2024-03-25T06:01:29;5.97;92.42
64961;SHT31;51487;52.266;10.542;2024-03-25T06:03:55;6.03;92.36
64961;SHT31;51487;52.266;10.542;2024-03-25T06:06:20;6.01;92.34
64961;SHT31;51487;52.266;10.542;2024-03-25T06:08:46;5.92;92.85
64961;SHT31;51487;52.266;10.542;2024-03-25T06:11:11;6.01;92.66
64961;SHT31;51487;52.266;10.542;2024-03-25T06:13:37;6.12;92.62
64961;SHT31;51487;52.266;10.542;2024-03-25T06:16:03;6.16;92.79
64961;SHT31;51487;52.266;10.542;2024-03-25T06:18:28;6.25;92.13
64961;SHT31;51487;52.266;10.542;2024-03-25T06:20:54;6.33;92.03
64961;SHT31;51487;52.266;10.542;2024-03-25T06:23:27;6.36;92.58
64961;SHT31;51487;52.266;10.542;2024-03-25T06:25:55;6.41;91.55
64961;SHT31;51487;52.266;10.542;2024-03-25T06:28:22;6.10;92.28
64961;SHT31;51487;52.266;10.542;2024-03-25T06:30:48;6.19;92.14
64961;SHT31;51487;52.266;10.542;2024-03-25T06:33:33;6.30;92.33
64961;SHT31;51487;52.266;10.542;2024-03-25T06:36:17;6.40;91.78
64961;SHT31;51487;52.266;10.542;2024-03-25T06:38:44;6.50;91.26
64961;SHT31;51487;52.266;10.542;2024-03-25T06:41:09;6.29;91.80
64961;SHT31;51487;52.266;10.542;2024-03-25T06:43:36;6.33;92.48
64961;SHT31;51487;52.266;10.542;2024-03-25T06:46:04;6.18;92.61
64961;SHT31;51487;52.266;10.542;2024-03-25T06:48:29;6.25;92.96
64961;SHT31;51487;52.266;10.542;2024-03-25T06:50:59;6.37;92.27
64961;SHT31;51487;52.266;10.542;2024-03-25T06:53:25;6.29;92.69
64961;SHT31;51487;52.266;10.542;2024-03-25T06:55:56;6.44;92.43
64961;SHT31;51487;52.266;10.542;2024-03-25T06:58:23;6.66;92.10
64961;SHT31;51487;52.266;10.542;2024-03-25T07:00:49;6.63;92.04
64961;SHT31;51487;52.266;10.542;2024-03-25T07:03:21;6.64;92.28
64961;SHT31;51487;52.266;10.542;2024-03-25T07:05:48;6.81;91.60
64961;SHT31;51487;52.266;10.542;2024-03-25T07:08:15;6.71;91.85
64961;SHT31;51487;52.266;10.542;2024-03-25T07:10:44;6.67;91.23
64961;SHT31;51487;52.266;10.542;2024-03-25T07:13:10;6.85;91.26
64961;SHT31;51487;52.266;10.542;2024-03-25T07:15:36;6.73;91.10
64961;SHT31;51487;52.266;10.542;2024-03-25T07:18:02;6.64;91.60
64961;SHT31;51487;52.266;10.542;2024-03-25T07:20:29;6.89;91.16
64961;SHT31;51487;52.266;10.542;2024-03-25T07:22:56;6.76;90.35
64961;SHT31;51487;52.266;10.542;2024-03-25T07:25:25;6.87;89.89
64961;SHT31;51487;52.266;10.542;2024-03-25T07:27:51;6.99;90.27
64961;SHT31;51487;52.266;10.542;2024-03-25T07:30:18;7.02;90.40
64961;SHT31;51487;52.266;10.542;2024-03-25T07:32:44;7.05;90.85
64961;SHT31;51487;52.266;10.542;2024-03-25T07:35:11;7.23;90.62
64961;SHT31;51487;52.266;10.542;2024-03-25T07:37:36;7.33;89.96
64961;SHT31;51487;52.266;10.542;2024-03-25T07:40:02;7.30;90.19
64961;SHT31;51487;52.266;10.542;2024-03-25T07:42:29;7.38;89.90
64961;SHT31;51487;52.266;10.542;2024-03-25T07:44:55;7.42;89.44
64961;SHT31;51487;52.266;10.542;2024-03-25T07:47:21;7.50;89.78
64961;SHT31;51487;52.266;10.542;2024-03-25T07:49:47;7.53;89.35
64961;SHT31;51487;52.266;10.542;2024-03-25T07:52:12;7.49;89.17
64961;SHT31;51487;52.266;10.542;2024-03-25T07:54:39;7.56;88.73
64961;SHT31;51487;52.266;10.542;2024-03-25T07:57:04;7.50;89.18
64961;SHT31;51487;52.266;10.542;2024-03-25T07:59:30;7.38;89.28
64961;SHT31;51487;52.266;10.542;2024-03-25T08:01:56;7.50;88.08
64961;SHT31;51487;52.266;10.542;2024-03-25T08:04:21;7.60;87.90
64961;SHT31;51487;52.266;10.542;2024-03-25T08:06:47;7.71;87.52
64961;SHT31;51487;52.266;10.542;2024-03-25T08:09:12;7.86;87.51
64961;SHT31;51487;52.266;10.542;2024-03-25T08:11:41;7.78;86.93
64961;SHT31;51487;52.266;10.542;2024-03-25T08:14:09;7.83;87.08
64961;SHT31;51487;52.266;10.542;2024-03-25T08:16:35;7.60;86.72
64961;SHT31;51487;52.266;10.542;2024-03-25T08:19:01;7.63;86.89
64961;SHT31;51487;52.266;10.542;2024-03-25T08:21:26;7.78;86.08
64961;SHT31;51487;52.266;10.542;2024-03-25T08:23:52;7.83;86.29
64961;SHT31;51487;52.266;10.542;2024-03-25T08:26:17;7.80;85.61
64961;SHT31;51487;52.266;10.542;2024-03-25T08:28:43;7.97;85.14
64961;SHT31;51487;52.266;10.542;2024-03-25T08:31:08;8.28;84.99
64961;SHT31;51487;52.266;10.542;2024-03-25T08:33:34;8.09;84.12
64961;SHT31;51487;52.266;10.542;2024-03-25T08:35:59;8.12;83.98
64961;SHT31;51487;52.266;10.542;2024-03-25T08:38:25;8.12;85.21
64961;SHT31;51487;52.266;10.542;2024-03-25T08:40:51;7.88;85.55
64961;SHT31;51487;52.266;10.542;2024-03-25T08:43:17;7.73;85.65
64961;SHT31;51487;52.266;10.542;2024-03-25T08:45:44;7.67;85.59
64961;SHT31;51487;52.266;10.542;2024-03-25T08:48:10;7.88;85.21
64961;SHT31;51487;52.266;10.542;2024-03-25T08:50:36;7.94;84.63
64961;SHT31;51487;52.266;10.542;2024-03-25T08:53:03;8.15;84.69
64961;SHT31;51487;52.266;10.542;2024-03-25T08:55:28;7.94;83.94
64961;SHT31;51487;52.266;10.542;2024-03-25T08:57:54;8.20;82.75
64961;SHT31;51487;52.266;10.542;2024-03-25T09:00:19;8.26;81.85
64961;SHT31;51487;52.266;10.542;2024-03-25T09:02:45;8.28;81.57
64961;SHT31;51487;52.266;10.542;2024-03-25T09:05:11;8.50;81.65
64961;SHT31;51487;52.266;10.542;2024-03-25T09:07:39;8.66;81.67
64961;SHT31;51487;52.266;10.542;2024-03-25T09:10:05;8.63;81.30
64961;SHT31;51487;52.266;10.542;2024-03-25T09:12:49;8.44;81.33
64961;SHT31;51487;52.266;10.542;2024-03-25T09:15:14;8.44;82.21
64961;SHT31;51487;52.266;10.542;2024-03-25T09:17:40;8.57;81.31
64961;SHT31;51487;52.266;10.542;2024-03-25T09:20:06;8.60;80.51
64961;SHT31;51487;52.266;10.542;2024-03-25T09:22:45;8.38;81.26
64961;SHT31;51487;52.266;10.542;2024-03-25T09:25:12;8.69;81.10
64961;SHT31;51487;52.266;10.542;2024-03-25T09:27:38;8.66;80.90
64961;SHT31;51487;52.266;10.542;2024-03-25T09:30:05;8.70;80.27
64961;SHT31;51487;52.266;10.542;2024-03-25T09:32:31;8.72;81.27
64961;SHT31;51487;52.266;10.542;2024-03-25T09:34:57;8.75;80.76
64961;SHT31;51487;52.266;10.542;2024-03-25T09:37:23;8.83;80.60
64961;SHT31;51487;52.266;10.542;2024-03-25T09:39:49;9.00;80.49
64961;SHT31;51487;52.266;10.542;2024-03-25T09:42:28;8.73;80.25
64961;SHT31;51487;52.266;10.542;2024-03-25T09:44:58;8.86;79.14
64961;SHT31;51487;52.266;10.542;2024-03-25T09:47:23;9.04;78.43
64961;SHT31;51487;52.266;10.542;2024-03-25T09:49:49;9.06;78.45
64961;SHT31;51487;52.266;10.542;2024-03-25T09:52:18;9.08;77.83
64961;SHT31;51487;52.266;10.542;2024-03-25T09:54:44;9.10;77.17
64961;SHT31;51487;52.266;10.542;2024-03-25T09:57:09;9.06;74.27
64961;SHT31;51487;52.266;10.542;2024-03-25T09:59:35;8.57;75.18
64961;SHT31;51487;52.266;10.542;2024-03-25T10:02:02;8.66;75.31
64961;SHT31;51487;52.266;10.542;2024-03-25T10:04:29;8.79;74.72
64961;SHT31;51487;52.266;10.542;2024-03-25T10:06:55;8.97;69.93
64961;SHT31;51487;52.266;10.542;2024-03-25T10:09:21;8.81;69.29
64961;SHT31;51487;52.266;10.542;2024-03-25T10:11:51;8.79;70.57
64961;SHT31;51487;52.266;10.542;2024-03-25T10:14:17;8.76;69.27
64961;SHT31;51487;52.266;10.542;2024-03-25T10:16:43;8.80;67.19
64961;SHT31;51487;52.266;10.542;2024-03-25T10:19:09;8.79;68.26
64961;SHT31;51487;52.266;10.542;2024-03-25T10:21:35;8.94;68.37
64961;SHT31;51487;52.266;10.542;2024-03-25T10:24:04;9.21;68.71
64961;SHT31;51487;52.266;10.542;2024-03-25T10:26:32;9.28;68.58
64961;SHT31;51487;52.266;10.542;2024-03-25T10:29:02;9.04;70.13
64961;SHT31;51487;52.266;10.542;2024-03-25T10:31:32;9.18;71.03
64961;SHT31;51487;52.266;10.542;2024-03-25T10:33:58;9.30;70.37
64961;SHT31;51487;52.266;10.542;2024-03-25T10:36:24;9.21;69.94
64961;SHT31;51487;52.266;10.542;2024-03-25T10:38:56;9.41;69.02
64961;SHT31;51487;52.266;10.542;2024-03-25T10:41:22;9.45;66.24
64961;SHT31;51487;52.266;10.542;2024-03-25T10:43:49;8.75;65.54
64961;SHT31;51487;52.266;10.542;2024-03-25T10:46:24;8.79;65.71
64961;SHT31;51487;52.266;10.542;2024-03-25T10:49:08;8.79;67.91
64961;SHT31;51487;52.266;10.542;2024-03-25T10:51:36;9.17;68.06
64961;SHT31;51487;52.266;10.542;2024-03-25T10:54:03;9.13;70.13
64961;SHT31;51487;52.266;10.542;2024-03-25T10:56:29;8.97;71.26
64961;SHT31;51487;52.266;10.542;2024-03-25T10:58:56;9.04;71.40
64961;SHT31;51487;52.266;10.542;2024-03-25T11:01:22;9.04;71.38
64961;SHT31;51487;52.266;10.542;2024-03-25T11:03:49;9.13;70.67
64961;SHT31;51487;52.266;10.542;2024-03-25T11:06:15;8.90;71.50
64961;SHT31;51487;52.266;10.542;2024-03-25T11:08:42;9.20;71.38
64961;SHT31;51487;52.266;10.542;2024-03-25T11:11:15;9.15;71.73
64961;SHT31;51487;52.266;10.542;2024-03-25T11:13:42;9.18;73.11
64961;SHT31;51487;52.266;10.542;2024-03-25T11:16:08;9.52;70.72
64961;SHT31;51487;52.266;10.542;2024-03-25T11:18:35;9.63;71.05
64961;SHT31;51487;52.266;10.542;2024-03-25T11:21:05;9.81;70.20
64961;SHT31;51487;52.266;10.542;2024-03-25T11:23:38;9.49;69.75
64961;SHT31;51487;52.266;10.542;2024-03-25T11:26:25;9.85;69.80
64961;SHT31;51487;52.266;10.542;2024-03-25T11:28:52;10.17;69.14
64961;SHT31;51487;52.266;10.542;2024-03-25T11:31:21;9.99;69.21
64961;SHT31;51487;52.266;10.542;2024-03-25T11:33:50;9.24;70.73
64961;SHT31;51487;52.266;10.542;2024-03-25T11:36:15;9.34;70.32
64961;SHT31;51487;52.266;10.542;2024-03-25T11:38:44;9.62;68.73
64961;SHT31;51487;52.266;10.542;2024-03-25T11:41:13;9.36;66.63
64961;SHT31;51487;52.266;10.542;2024-03-25T11:43:41;9.89;68.03
64961;SHT31;51487;52.266;10.542;2024-03-25T11:46:07;12.14;72.75
64961;SHT31;51487;52.266;10.542;2024-03-25T11:48:33;12.43;60.23
64961;SHT31;51487;52.266;10.542;2024-03-25T11:50:58;11.23;61.44
64961;SHT31;51487;52.266;10.542;2024-03-25T11:53:26;10.75;64.87
64961;SHT31;51487;52.266;10.542;2024-03-25T11:55:53;10.58;65.44
64961;SHT31;51487;52.266;10.542;2024-03-25T11:58:18;10.48;65.76
64961;SHT31;51487;52.266;10.542;2024-03-25T12:00:45;10.13;66.39
64961;SHT31;51487;52.266;10.542;2024-03-25T12:03:13;10.12;66.97
64961;SHT31;51487;52.266;10.542;2024-03-25T12:05:40;10.12;67.01
64961;SHT31;51487;52.266;10.542;2024-03-25T12:08:09;9.97;67.74
64961;SHT31;51487;52.266;10.542;2024-03-25T12:10:37;10.23;67.66
64961;SHT31;51487;52.266;10.542;2024-03-25T12:13:22;10.34;66.72
64961;SHT31;51487;52.266;10.542;2024-03-25T12:15:48;10.45;65.06
64961;SHT31;51487;52.266;10.542;2024-03-25T12:18:17;10.41;65.07
64961;SHT31;51487;52.266;10.542;2024-03-25T12:20:48;10.32;65.87
64961;SHT31;51487;52.266;10.542;2024-03-25T12:23:13;10.51;64.81
64961;SHT31;51487;52.266;10.542;2024-03-25T12:25:41;10.36;65.46
64961;SHT31;51487;52.266;10.542;2024-03-25T12:28:12;10.29;66.02
64961;SHT31;51487;52.266;10.542;2024-03-25T12:30:54;9.83;66.95
64961;SHT31;51487;52.266;10.542;2024-03-25T12:33:23;9.75;66.85
64961;SHT31;51487;52.266;10.542;2024-03-25T12:35:50;9.71;67.96
64961;SHT31;51487;52.266;10.542;2024-03-25T12:40:48;9.63;67.99
64961;SHT31;51487;52.266;10.542;2024-03-25T12:43:17;9.41;66.99
64961;SHT31;51487;52.266;10.542;2024-03-25T12:45:42;9.69;66.93
64961;SHT31;51487;52.266;10.542;2024-03-25T12:48:09;9.79;66.50
64961;SHT31;51487;52.266;10.542;2024-03-25T12:50:35;10.10;66.93
64961;SHT31;51487;52.266;10.542;2024-03-25T12:53:01;10.20;65.58
64961;SHT31;51487;52.266;10.542;2024-03-25T12:55:30;9.82;65.82
64961;SHT31;51487;52.266;10.542;2024-03-25T12:57:56;9.78;65.68
64961;SHT31;51487;52.266;10.542;2024-03-25T13:00:21;9.68;66.68
64961;SHT31;51487;52.266;10.542;2024-03-25T13:02:49;9.58;66.57
64961;SHT31;51487;52.266;10.542;2024-03-25T13:05:14;9.35;67.72
64961;SHT31;51487;52.266;10.542;2024-03-25T13:07:40;9.32;67.99
64961;SHT31;51487;52.266;10.542;2024-03-25T13:10:06;9.73;67.38
64961;SHT31;51487;52.266;10.542;2024-03-25T13:12:32;10.10;65.83
64961;SHT31;51487;52.266;10.542;2024-03-25T13:14:57;10.23;66.78
64961;SHT31;51487;52.266;10.542;2024-03-25T13:17:25;10.67;65.71
64961;SHT31;51487;52.266;10.542;2024-03-25T13:19:50;10.81;65.21
64961;SHT31;51487;52.266;10.542;2024-03-25T13:22:16;10.76;64.05
64961;SHT31;51487;52.266;10.542;2024-03-25T13:24:41;10.98;63.71
64961;SHT31;51487;52.266;10.542;2024-03-25T13:27:07;10.81;63.53
64961;SHT31;51487;52.266;10.542;2024-03-25T13:29:32;10.91;64.00
64961;SHT31;51487;52.266;10.542;2024-03-25T13:32:01;10.79;64.51
64961;SHT31;51487;52.266;10.542;2024-03-25T13:34:27;10.53;65.00
64961;SHT31;51487;52.266;10.542;2024-03-25T13:36:52;10.76;64.12
64961;SHT31;51487;52.266;10.542;2024-03-25T13:39:18;10.62;63.11
64961;SHT31;51487;52.266;10.542;2024-03-25T13:41:43;10.41;64.27
64961;SHT31;51487;52.266;10.542;2024-03-25T13:44:10;10.50;63.80
64961;SHT31;51487;52.266;10.542;2024-03-25T13:46:36;10.58;63.60
64961;SHT31;51487;52.266;10.542;2024-03-25T13:49:01;10.41;65.02
64961;SHT31;51487;52.266;10.542;2024-03-25T13:51:27;10.53;64.41
64961;SHT31;51487;52.266;10.542;2024-03-25T13:53:53;10.83;64.02
64961;SHT31;51487;52.266;10.542;2024-03-25T13:56:19;11.15;62.13
64961;SHT31;51487;52.266;10.542;2024-03-25T13:58:44;10.85;63.13
64961;SHT31;51487;52.266;10.542;2024-03-25T14:01:10;10.74;63.23
64961;SHT31;51487;52.266;10.542;2024-03-25T14:03:36;10.62;63.62
64961;SHT31;51487;52.266;10.542;2024-03-25T14:06:01;10.75;63.60
64961;SHT31;51487;52.266;10.542;2024-03-25T14:08:27;10.95;65.09
64961;SHT31;51487;52.266;10.542;2024-03-25T14:10:59;11.02;64.31
64961;SHT31;51487;52.266;10.542;2024-03-25T14:13:26;11.09;64.82
64961;SHT31;51487;52.266;10.542;2024-03-25T14:15:51;10.95;64.97
64961;SHT31;51487;52.266;10.542;2024-03-25T14:18:17;10.85;65.78
64961;SHT31;51487;52.266;10.542;2024-03-25T14:20:42;10.92;64.99
64961;SHT31;51487;52.266;10.542;2024-03-25T14:23:09;10.69;66.01
64961;SHT31;51487;52.266;10.542;2024-03-25T14:25:34;10.93;65.55
64961;SHT31;51487;52.266;10.542;2024-03-25T14:28:00;10.82;64.39
64961;SHT31;51487;52.266;10.542;2024-03-25T14:30:25;10.72;65.74
64961;SHT31;51487;52.266;10.542;2024-03-25T14:32:51;10.69;66.36
64961;SHT31;51487;52.266;10.542;2024-03-25T14:35:16;10.60;66.08
64961;SHT31;51487;52.266;10.542;2024-03-25T14:37:42;10.37;66.20
64961;SHT31;51487;52.266;10.542;2024-03-25T14:40:08;10.34;66.53
64961;SHT31;51487;52.266;10.542;2024-03-25T14:42:34;10.32;67.32
64961;SHT31;51487;52.266;10.542;2024-03-25T14:45:00;10.40;67.05
64961;SHT31;51487;52.266;10.542;2024-03-25T14:47:25;10.09;65.97
64961;SHT31;51487;52.266;10.542;2024-03-25T14:49:51;10.13;66.26
64961;SHT31;51487;52.266;10.542;2024-03-25T14:52:16;10.41;66.72
64961;SHT31;51487;52.266;10.542;2024-03-25T14:54:42;10.50;65.62
64961;SHT31;51487;52.266;10.542;2024-03-25T14:57:07;10.38;65.79
64961;SHT31;51487;52.266;10.542;2024-03-25T14:59:33;10.65;66.79
64961;SHT31;51487;52.266;10.542;2024-03-25T15:02:00;11.12;66.54
64961;SHT31;51487;52.266;10.542;2024-03-25T15:04:27;11.37;65.51
64961;SHT31;51487;52.266;10.542;2024-03-25T15:06:52;11.09;64.85
64961;SHT31;51487;52.266;10.542;2024-03-25T15:09:18;11.12;64.50
64961;SHT31;51487;52.266;10.542;2024-03-25T15:11:45;11.23;65.17
64961;SHT31;51487;52.266;10.542;2024-03-25T15:14:11;11.39;65.14
64961;SHT31;51487;52.266;10.542;2024-03-25T15:16:36;11.39;64.84
64961;SHT31;51487;52.266;10.542;2024-03-25T15:19:02;11.30;65.04
64961;SHT31;51487;52.266;10.542;2024-03-25T15:21:28;11.36;64.05
64961;SHT31;51487;52.266;10.542;2024-03-25T15:23:54;11.02;63.44
64961;SHT31;51487;52.266;10.542;2024-03-25T15:26:19;11.03;65.22